sensor_id;sensor_type;location;lat;lon;timestamp;P1;durP1;ratioP1;P2;durP2;ratioP2
74269;SDS011;62754;48.252;11.654;2023-05-27T00:00:25;11.65;;;6.78;;
74269;SDS011;62754;48.252;11.654;2023-05-27T00:02:55;10.43;;;5.72;;
74269;SDS011;62754;48.252;11.654;2023-05-27T00:05:21;12.30;;;6.53;;
74269;SDS011;62754;48.252;11.654;2023-05-27T00:07:52;9.05;;;5.90;;
74269;SDS011;62754;48.252;11.654;2023-05-27T00:10:17;13.15;;;6.95;;
74269;SDS011;62754;48.252;11.654;2023-05-27T00:12:48;10.15;;;6.10;;
74269;SDS011;62754;48.252;11.654;2023-05-27T00:15:16;10.38;;;5.70;;
74269;SDS011;62754;48.252;11.654;2023-05-27T00:17:42;10.02;;;6.50;;
74269;SDS011;62754;48.252;11.654;2023-05-27T00:20:07;10.07;;;6.57;;
74269;SDS011;62754;48.252;11.654;2023-05-27T00:22:33;12.63;;;6.35;;
74269;SDS011;62754;48.252;11.654;2023-05-27T00:25:04;11.98;;;6.20;;
74269;SDS011;62754;48.252;11.654;2023-05-27T00:27:30;10.95;;;6.25;;
74269;SDS011;62754;48.252;11.654;2023-05-27T00:29:58;11.32;;;6.13;;
74269;SDS011;62754;48.252;11.654;2023-05-27T00:32:29;10.73;;;6.40;;
74269;SDS011;62754;48.252;11.654;2023-05-27T00:34:55;9.43;;;6.72;;
74269;SDS011;62754;48.252;11.654;2023-05-27T00:37:20;11.45;;;6.97;;
74269;SDS011;62754;48.252;11.654;2023-05-27T00:39:46;10.07;;;6.28;;
74269;SDS011;62754;48.252;11.654;2023-05-27T00:42:14;9.80;;;6.07;;
74269;SDS011;62754;48.252;11.654;2023-05-27T00:44:44;10.05;;;6.18;;
74269;SDS011;62754;48.252;11.654;2023-05-27T00:47:10;11.30;;;6.38;;
74269;SDS011;62754;48.252;11.654;2023-05-27T00:49:36;9.82;;;6.60;;
74269;SDS011;62754;48.252;11.654;2023-05-27T00:52:04;10.77;;;6.38;;
74269;SDS011;62754;48.252;11.654;2023-05-27T00:54:30;13.52;;;7.45;;
74269;SDS011;62754;48.252;11.654;2023-05-27T00:56:58;11.82;;;6.88;;
74269;SDS011;62754;48.252;11.654;2023-05-27T00:59:27;12.02;;;6.78;;
74269;SDS011;62754;48.252;11.654;2023-05-27T01:01:55;12.35;;;6.93;;
74269;SDS011;62754;48.252;11.654;2023-05-27T01:04:24;10.57;;;6.45;;
74269;SDS011;62754;48.252;11.654;2023-05-27T01:06:58;13.45;;;7.88;;
74269;SDS011;62754;48.252;11.654;2023-05-27T01:12:16;10.27;;;6.75;;
74269;SDS011;62754;48.252;11.654;2023-05-27T01:14:54;9.68;;;7.03;;
74269;SDS011;62754;48.252;11.654;2023-05-27T01:17:23;9.25;;;6.10;;
74269;SDS011;62754;48.252;11.654;2023-05-27T01:19:54;10.13;;;6.63;;
74269;SDS011;62754;48.252;11.654;2023-05-27T01:22:27;8.85;;;6.45;;
74269;SDS011;62754;48.252;11.654;2023-05-27T01:24:55;13.25;;;7.10;;
74269;SDS011;62754;48.252;11.654;2023-05-27T01:27:24;8.38;;;6.25;;
74269;SDS011;62754;48.252;11.654;2023-05-27T01:29:49;9.85;;;6.82;;
74269;SDS011;62754;48.252;11.654;2023-05-27T01:32:34;9.48;;;6.55;;
74269;SDS011;62754;48.252;11.654;2023-05-27T01:35:07;11.10;;;6.50;;
74269;SDS011;62754;48.252;11.654;2023-05-27T01:37:59;10.80;;;6.85;;
74269;SDS011;62754;48.252;11.654;2023-05-27T01:40:27;10.00;;;6.40;;
74269;SDS011;62754;48.252;11.654;2023-05-27T01:42:53;11.60;;;7.15;;
74269;SDS011;62754;48.252;11.654;2023-05-27T01:45:22;10.80;;;6.40;;
74269;SDS011;62754;48.252;11.654;2023-05-27T01:47:48;11.02;;;7.15;;
74269;SDS011;62754;48.252;11.654;2023-05-27T01:50:16;10.93;;;6.68;;
74269;SDS011;62754;48.252;11.654;2023-05-27T01:52:44;10.40;;;7.20;;
74269;SDS011;62754;48.252;11.654;2023-05-27T01:55:10;12.10;;;7.32;;
74269;SDS011;62754;48.252;11.654;2023-05-27T01:57:36;12.60;;;7.43;;
74269;SDS011;62754;48.252;11.654;2023-05-27T02:00:02;12.85;;;7.20;;
74269;SDS011;62754;48.252;11.654;2023-05-27T02:02:28;11.32;;;7.15;;
74269;SDS011;62754;48.252;11.654;2023-05-27T02:04:54;11.73;;;7.95;;
74269;SDS011;62754;48.252;11.654;2023-05-27T02:07:20;11.80;;;7.68;;
74269;SDS011;62754;48.252;11.654;2023-05-27T02:09:45;10.25;;;6.82;;
74269;SDS011;62754;48.252;11.654;2023-05-27T02:12:13;11.48;;;7.00;;
74269;SDS011;62754;48.252;11.654;2023-05-27T02:14:44;10.80;;;6.90;;
74269;SDS011;62754;48.252;11.654;2023-05-27T02:17:10;11.63;;;7.22;;
74269;SDS011;62754;48.252;11.654;2023-05-27T02:19:40;9.60;;;7.10;;
74269;SDS011;62754;48.252;11.654;2023-05-27T02:22:06;10.35;;;7.13;;
74269;SDS011;62754;48.252;11.654;2023-05-27T02:24:34;15.18;;;7.28;;
74269;SDS011;62754;48.252;11.654;2023-05-27T02:27:00;12.20;;;7.35;;
74269;SDS011;62754;48.252;11.654;2023-05-27T02:29:29;11.30;;;6.90;;
74269;SDS011;62754;48.252;11.654;2023-05-27T02:31:56;11.63;;;7.45;;
74269;SDS011;62754;48.252;11.654;2023-05-27T02:34:22;14.38;;;7.50;;
74269;SDS011;62754;48.252;11.654;2023-05-27T02:36:50;12.13;;;7.97;;
74269;SDS011;62754;48.252;11.654;2023-05-27T02:39:18;14.85;;;7.78;;
74269;SDS011;62754;48.252;11.654;2023-05-27T02:41:46;11.10;;;7.18;;
74269;SDS011;62754;48.252;11.654;2023-05-27T02:44:12;12.60;;;7.22;;
74269;SDS011;62754;48.252;11.654;2023-05-27T02:46:40;11.13;;;7.25;;
74269;SDS011;62754;48.252;11.654;2023-05-27T02:49:06;11.23;;;7.40;;
74269;SDS011;62754;48.252;11.654;2023-05-27T02:51:33;11.25;;;6.50;;
74269;SDS011;62754;48.252;11.654;2023-05-27T02:53:59;12.07;;;7.60;;
74269;SDS011;62754;48.252;11.654;2023-05-27T02:56:28;11.07;;;6.82;;
74269;SDS011;62754;48.252;11.654;2023-05-27T02:58:56;11.73;;;8.05;;
74269;SDS011;62754;48.252;11.654;2023-05-27T03:01:24;12.45;;;7.68;;
74269;SDS011;62754;48.252;11.654;2023-05-27T03:03:58;12.05;;;7.40;;
74269;SDS011;62754;48.252;11.654;2023-05-27T03:06:23;11.68;;;7.45;;
74269;SDS011;62754;48.252;11.654;2023-05-27T03:08:49;12.15;;;8.45;;
74269;SDS011;62754;48.252;11.654;2023-05-27T03:11:17;12.00;;;7.25;;
74269;SDS011;62754;48.252;11.654;2023-05-27T03:13:45;13.52;;;7.78;;
74269;SDS011;62754;48.252;11.654;2023-05-27T03:16:11;11.15;;;7.20;;
74269;SDS011;62754;48.252;11.654;2023-05-27T03:18:39;11.88;;;7.00;;
74269;SDS011;62754;48.252;11.654;2023-05-27T03:21:05;12.82;;;7.32;;
74269;SDS011;62754;48.252;11.654;2023-05-27T03:23:38;13.88;;;7.13;;
74269;SDS011;62754;48.252;11.654;2023-05-27T03:26:03;11.55;;;7.15;;
74269;SDS011;62754;48.252;11.654;2023-05-27T03:28:29;11.85;;;6.80;;
74269;SDS011;62754;48.252;11.654;2023-05-27T03:30:57;13.48;;;7.38;;
74269;SDS011;62754;48.252;11.654;2023-05-27T03:33:23;10.30;;;7.28;;
74269;SDS011;62754;48.252;11.654;2023-05-27T03:35:49;12.80;;;6.88;;
74269;SDS011;62754;48.252;11.654;2023-05-27T03:38:18;12.02;;;7.43;;
74269;SDS011;62754;48.252;11.654;2023-05-27T03:40:46;14.60;;;7.95;;
74269;SDS011;62754;48.252;11.654;2023-05-27T03:43:12;11.75;;;7.75;;
74269;SDS011;62754;48.252;11.654;2023-05-27T03:45:38;11.07;;;7.35;;
74269;SDS011;62754;48.252;11.654;2023-05-27T03:48:03;11.52;;;7.70;;
74269;SDS011;62754;48.252;11.654;2023-05-27T03:50:32;12.43;;;7.75;;
74269;SDS011;62754;48.252;11.654;2023-05-27T03:53:00;13.00;;;7.47;;
74269;SDS011;62754;48.252;11.654;2023-05-27T03:55:28;14.32;;;7.97;;
74269;SDS011;62754;48.252;11.654;2023-05-27T03:57:54;13.00;;;7.80;;
74269;SDS011;62754;48.252;11.654;2023-05-27T04:00:22;14.40;;;7.82;;
74269;SDS011;62754;48.252;11.654;2023-05-27T04:02:50;11.27;;;6.97;;
74269;SDS011;62754;48.252;11.654;2023-05-27T04:05:18;12.85;;;7.65;;
74269;SDS011;62754;48.252;11.654;2023-05-27T04:07:43;10.48;;;7.10;;
74269;SDS011;62754;48.252;11.654;2023-05-27T04:10:09;12.30;;;7.45;;
74269;SDS011;62754;48.252;11.654;2023-05-27T04:12:35;11.13;;;7.18;;
74269;SDS011;62754;48.252;11.654;2023-05-27T04:15:03;11.95;;;7.72;;
74269;SDS011;62754;48.252;11.654;2023-05-27T04:17:33;11.10;;;7.72;;
74269;SDS011;62754;48.252;11.654;2023-05-27T04:19:59;12.02;;;7.40;;
74269;SDS011;62754;48.252;11.654;2023-05-27T04:22:27;12.38;;;7.68;;
74269;SDS011;62754;48.252;11.654;2023-05-27T04:25:00;12.40;;;7.13;;
74269;SDS011;62754;48.252;11.654;2023-05-27T04:27:26;10.57;;;6.78;;
74269;SDS011;62754;48.252;11.654;2023-05-27T04:29:52;12.65;;;7.57;;
74269;SDS011;62754;48.252;11.654;2023-05-27T04:32:20;12.90;;;7.38;;
74269;SDS011;62754;48.252;11.654;2023-05-27T04:34:45;13.25;;;6.95;;
74269;SDS011;62754;48.252;11.654;2023-05-27T04:37:16;11.07;;;6.75;;
74269;SDS011;62754;48.252;11.654;2023-05-27T04:39:46;9.43;;;6.40;;
74269;SDS011;62754;48.252;11.654;2023-05-27T04:42:12;11.07;;;6.13;;
74269;SDS011;62754;48.252;11.654;2023-05-27T04:44:41;9.68;;;6.25;;
74269;SDS011;62754;48.252;11.654;2023-05-27T04:47:08;13.07;;;6.13;;
74269;SDS011;62754;48.252;11.654;2023-05-27T04:49:34;11.02;;;6.10;;
74269;SDS011;62754;48.252;11.654;2023-05-27T04:52:00;9.55;;;5.55;;
74269;SDS011;62754;48.252;11.654;2023-05-27T04:54:28;12.48;;;6.43;;
74269;SDS011;62754;48.252;11.654;2023-05-27T04:56:54;9.63;;;6.18;;
74269;SDS011;62754;48.252;11.654;2023-05-27T04:59:22;8.85;;;5.32;;
74269;SDS011;62754;48.252;11.654;2023-05-27T05:01:50;9.32;;;4.93;;
74269;SDS011;62754;48.252;11.654;2023-05-27T05:04:17;10.43;;;5.65;;
74269;SDS011;62754;48.252;11.654;2023-05-27T05:06:43;8.68;;;5.15;;
74269;SDS011;62754;48.252;11.654;2023-05-27T05:09:09;12.45;;;5.50;;
74269;SDS011;62754;48.252;11.654;2023-05-27T05:11:35;11.25;;;6.13;;
74269;SDS011;62754;48.252;11.654;2023-05-27T05:14:03;9.43;;;5.22;;
74269;SDS011;62754;48.252;11.654;2023-05-27T05:16:29;10.60;;;4.90;;
74269;SDS011;62754;48.252;11.654;2023-05-27T05:18:54;8.07;;;4.97;;
74269;SDS011;62754;48.252;11.654;2023-05-27T05:21:20;10.77;;;5.15;;
74269;SDS011;62754;48.252;11.654;2023-05-27T05:23:48;8.80;;;5.15;;
74269;SDS011;62754;48.252;11.654;2023-05-27T05:26:14;10.20;;;5.50;;
74269;SDS011;62754;48.252;11.654;2023-05-27T05:28:42;13.52;;;5.05;;
74269;SDS011;62754;48.252;11.654;2023-05-27T05:31:12;12.57;;;5.07;;
74269;SDS011;62754;48.252;11.654;2023-05-27T05:33:37;12.10;;;5.20;;
74269;SDS011;62754;48.252;11.654;2023-05-27T05:36:03;8.95;;;4.32;;
74269;SDS011;62754;48.252;11.654;2023-05-27T05:38:29;9.80;;;4.88;;
74269;SDS011;62754;48.252;11.654;2023-05-27T05:40:55;8.82;;;4.63;;
74269;SDS011;62754;48.252;11.654;2023-05-27T05:43:21;13.05;;;5.68;;
74269;SDS011;62754;48.252;11.654;2023-05-27T05:45:47;11.32;;;5.38;;
74269;SDS011;62754;48.252;11.654;2023-05-27T05:48:15;9.50;;;4.82;;
74269;SDS011;62754;48.252;11.654;2023-05-27T05:50:43;11.18;;;5.03;;
74269;SDS011;62754;48.252;11.654;2023-05-27T05:53:11;11.82;;;5.07;;
74269;SDS011;62754;48.252;11.654;2023-05-27T05:55:39;10.45;;;4.75;;
74269;SDS011;62754;48.252;11.654;2023-05-27T05:58:05;8.20;;;4.78;;
74269;SDS011;62754;48.252;11.654;2023-05-27T06:00:31;10.68;;;5.35;;
74269;SDS011;62754;48.252;11.654;2023-05-27T06:02:59;12.65;;;5.20;;
74269;SDS011;62754;48.252;11.654;2023-05-27T06:05:24;8.25;;;4.50;;
74269;SDS011;62754;48.252;11.654;2023-05-27T06:07:52;8.90;;;5.07;;
74269;SDS011;62754;48.252;11.654;2023-05-27T06:10:24;9.00;;;4.72;;
74269;SDS011;62754;48.252;11.654;2023-05-27T06:12:52;12.25;;;5.00;;
74269;SDS011;62754;48.252;11.654;2023-05-27T06:15:18;8.95;;;4.53;;
74269;SDS011;62754;48.252;11.654;2023-05-27T06:17:45;9.27;;;4.47;;
74269;SDS011;62754;48.252;11.654;2023-05-27T06:20:11;11.90;;;4.47;;
74269;SDS011;62754;48.252;11.654;2023-05-27T06:22:47;12.65;;;4.38;;
74269;SDS011;62754;48.252;11.654;2023-05-27T06:25:12;10.98;;;4.35;;
74269;SDS011;62754;48.252;11.654;2023-05-27T06:27:40;9.13;;;4.20;;
74269;SDS011;62754;48.252;11.654;2023-05-27T06:30:09;12.65;;;4.50;;
74269;SDS011;62754;48.252;11.654;2023-05-27T06:32:38;9.20;;;3.85;;
74269;SDS011;62754;48.252;11.654;2023-05-27T06:35:03;6.95;;;3.83;;
74269;SDS011;62754;48.252;11.654;2023-05-27T06:37:34;7.93;;;4.25;;
74269;SDS011;62754;48.252;11.654;2023-05-27T06:40:02;10.00;;;4.20;;
74269;SDS011;62754;48.252;11.654;2023-05-27T06:42:33;7.57;;;4.32;;
74269;SDS011;62754;48.252;11.654;2023-05-27T06:44:59;8.75;;;3.58;;
74269;SDS011;62754;48.252;11.654;2023-05-27T06:47:27;9.90;;;4.07;;
74269;SDS011;62754;48.252;11.654;2023-05-27T06:49:55;10.27;;;3.90;;
74269;SDS011;62754;48.252;11.654;2023-05-27T06:52:21;8.07;;;3.65;;
74269;SDS011;62754;48.252;11.654;2023-05-27T06:54:49;10.27;;;3.53;;
74269;SDS011;62754;48.252;11.654;2023-05-27T06:57:14;10.35;;;3.85;;
74269;SDS011;62754;48.252;11.654;2023-05-27T06:59:40;10.07;;;3.85;;
74269;SDS011;62754;48.252;11.654;2023-05-27T07:02:08;8.73;;;3.42;;
74269;SDS011;62754;48.252;11.654;2023-05-27T07:04:34;8.65;;;3.58;;
74269;SDS011;62754;48.252;11.654;2023-05-27T07:07:02;7.15;;;3.22;;
74269;SDS011;62754;48.252;11.654;2023-05-27T07:09:28;9.48;;;3.53;;
74269;SDS011;62754;48.252;11.654;2023-05-27T07:11:56;7.68;;;3.45;;
74269;SDS011;62754;48.252;11.654;2023-05-27T07:14:24;9.30;;;3.50;;
74269;SDS011;62754;48.252;11.654;2023-05-27T07:16:53;9.48;;;3.47;;
74269;SDS011;62754;48.252;11.654;2023-05-27T07:19:21;6.72;;;3.33;;
74269;SDS011;62754;48.252;11.654;2023-05-27T07:21:46;5.65;;;3.10;;
74269;SDS011;62754;48.252;11.654;2023-05-27T07:24:21;9.38;;;3.33;;
74269;SDS011;62754;48.252;11.654;2023-05-27T07:26:47;9.25;;;3.83;;
74269;SDS011;62754;48.252;11.654;2023-05-27T07:29:12;9.68;;;3.17;;
74269;SDS011;62754;48.252;11.654;2023-05-27T07:31:38;10.75;;;3.72;;
74269;SDS011;62754;48.252;11.654;2023-05-27T07:34:06;11.68;;;3.85;;
74269;SDS011;62754;48.252;11.654;2023-05-27T07:36:32;10.32;;;4.03;;
74269;SDS011;62754;48.252;11.654;2023-05-27T07:38:58;8.77;;;3.65;;
74269;SDS011;62754;48.252;11.654;2023-05-27T07:41:28;7.93;;;3.75;;
74269;SDS011;62754;48.252;11.654;2023-05-27T07:43:56;8.63;;;3.50;;
74269;SDS011;62754;48.252;11.654;2023-05-27T07:46:22;7.70;;;3.40;;
74269;SDS011;62754;48.252;11.654;2023-05-27T07:48:48;10.32;;;3.55;;
74269;SDS011;62754;48.252;11.654;2023-05-27T07:51:16;8.18;;;3.78;;
74269;SDS011;62754;48.252;11.654;2023-05-27T07:53:42;7.07;;;3.40;;
74269;SDS011;62754;48.252;11.654;2023-05-27T07:56:08;9.73;;;3.80;;
74269;SDS011;62754;48.252;11.654;2023-05-27T07:58:35;10.23;;;3.70;;
74269;SDS011;62754;48.252;11.654;2023-05-27T08:01:03;10.98;;;3.58;;
74269;SDS011;62754;48.252;11.654;2023-05-27T08:03:34;9.50;;;3.67;;
74269;SDS011;62754;48.252;11.654;2023-05-27T08:06:02;20.35;;;4.32;;
74269;SDS011;62754;48.252;11.654;2023-05-27T08:08:30;9.48;;;4.00;;
74269;SDS011;62754;48.252;11.654;2023-05-27T08:10:55;10.02;;;3.40;;
74269;SDS011;62754;48.252;11.654;2023-05-27T08:13:21;9.60;;;3.78;;
74269;SDS011;62754;48.252;11.654;2023-05-27T08:15:47;10.95;;;3.92;;
74269;SDS011;62754;48.252;11.654;2023-05-27T08:18:16;11.23;;;3.63;;
74269;SDS011;62754;48.252;11.654;2023-05-27T08:20:44;13.05;;;4.30;;
74269;SDS011;62754;48.252;11.654;2023-05-27T08:23:12;7.82;;;3.80;;
74269;SDS011;62754;48.252;11.654;2023-05-27T08:25:40;12.73;;;4.53;;
74269;SDS011;62754;48.252;11.654;2023-05-27T08:28:06;10.32;;;4.15;;
74269;SDS011;62754;48.252;11.654;2023-05-27T08:30:32;7.35;;;3.67;;
74269;SDS011;62754;48.252;11.654;2023-05-27T08:32:58;13.80;;;4.20;;
74269;SDS011;62754;48.252;11.654;2023-05-27T08:35:28;8.95;;;3.58;;
74269;SDS011;62754;48.252;11.654;2023-05-27T08:37:53;9.77;;;3.78;;
74269;SDS011;62754;48.252;11.654;2023-05-27T08:40:22;12.77;;;4.30;;
74269;SDS011;62754;48.252;11.654;2023-05-27T08:42:50;9.63;;;4.00;;
74269;SDS011;62754;48.252;11.654;2023-05-27T08:45:20;13.15;;;4.35;;
74269;SDS011;62754;48.252;11.654;2023-05-27T08:47:51;9.63;;;4.22;;
74269;SDS011;62754;48.252;11.654;2023-05-27T08:50:24;8.07;;;4.05;;
74269;SDS011;62754;48.252;11.654;2023-05-27T08:52:53;12.45;;;4.13;;
74269;SDS011;62754;48.252;11.654;2023-05-27T08:55:19;6.95;;;3.63;;
74269;SDS011;62754;48.252;11.654;2023-05-27T08:57:52;7.63;;;3.75;;
74269;SDS011;62754;48.252;11.654;2023-05-27T09:00:22;8.40;;;4.25;;
74269;SDS011;62754;48.252;11.654;2023-05-27T09:02:51;11.27;;;4.07;;
74269;SDS011;62754;48.252;11.654;2023-05-27T09:05:17;7.55;;;3.75;;
74269;SDS011;62754;48.252;11.654;2023-05-27T09:07:43;10.50;;;4.13;;
74269;SDS011;62754;48.252;11.654;2023-05-27T09:12:35;11.57;;;4.32;;
74269;SDS011;62754;48.252;11.654;2023-05-27T09:15:04;7.57;;;4.03;;
74269;SDS011;62754;48.252;11.654;2023-05-27T09:17:31;8.32;;;3.83;;
74269;SDS011;62754;48.252;11.654;2023-05-27T09:20:05;8.68;;;4.43;;
74269;SDS011;62754;48.252;11.654;2023-05-27T09:22:33;10.65;;;3.85;;
74269;SDS011;62754;48.252;11.654;2023-05-27T09:24:59;8.38;;;3.88;;
74269;SDS011;62754;48.252;11.654;2023-05-27T09:27:28;13.75;;;5.05;;
74269;SDS011;62754;48.252;11.654;2023-05-27T09:29:58;8.23;;;4.30;;
74269;SDS011;62754;48.252;11.654;2023-05-27T09:32:31;10.80;;;4.07;;
74269;SDS011;62754;48.252;11.654;2023-05-27T09:35:02;9.73;;;4.82;;
74269;SDS011;62754;48.252;11.654;2023-05-27T09:37:31;8.68;;;4.22;;
74269;SDS011;62754;48.252;11.654;2023-05-27T09:45:12;10.07;;;4.45;;
74269;SDS011;62754;48.252;11.654;2023-05-27T09:47:41;8.82;;;4.25;;
74269;SDS011;62754;48.252;11.654;2023-05-27T09:50:12;9.73;;;4.20;;
74269;SDS011;62754;48.252;11.654;2023-05-27T09:52:38;12.32;;;3.83;;
74269;SDS011;62754;48.252;11.654;2023-05-27T09:55:05;7.85;;;3.97;;
74269;SDS011;62754;48.252;11.654;2023-05-27T09:57:34;8.70;;;4.50;;
74269;SDS011;62754;48.252;11.654;2023-05-27T10:00:05;8.90;;;4.10;;
74269;SDS011;62754;48.252;11.654;2023-05-27T10:02:35;7.90;;;3.88;;
74269;SDS011;62754;48.252;11.654;2023-05-27T10:05:04;9.50;;;4.20;;
74269;SDS011;62754;48.252;11.654;2023-05-27T10:07:31;9.23;;;4.10;;
74269;SDS011;62754;48.252;11.654;2023-05-27T10:09:59;9.50;;;3.50;;
74269;SDS011;62754;48.252;11.654;2023-05-27T10:12:25;8.32;;;4.20;;
74269;SDS011;62754;48.252;11.654;2023-05-27T10:14:53;8.60;;;4.18;;
74269;SDS011;62754;48.252;11.654;2023-05-27T10:17:19;7.45;;;3.78;;
74269;SDS011;62754;48.252;11.654;2023-05-27T10:19:55;7.60;;;3.22;;
74269;SDS011;62754;48.252;11.654;2023-05-27T10:22:24;8.60;;;4.03;;
74269;SDS011;62754;48.252;11.654;2023-05-27T10:24:52;8.25;;;4.07;;
74269;SDS011;62754;48.252;11.654;2023-05-27T10:27:17;9.30;;;4.43;;
74269;SDS011;62754;48.252;11.654;2023-05-27T10:29:43;10.55;;;4.28;;
74269;SDS011;62754;48.252;11.654;2023-05-27T10:32:22;6.75;;;3.53;;
74269;SDS011;62754;48.252;11.654;2023-05-27T10:34:47;8.98;;;4.00;;
74269;SDS011;62754;48.252;11.654;2023-05-27T10:37:19;9.65;;;4.28;;
74269;SDS011;62754;48.252;11.654;2023-05-27T10:39:53;7.00;;;3.55;;
74269;SDS011;62754;48.252;11.654;2023-05-27T10:42:21;8.18;;;3.70;;
74269;SDS011;62754;48.252;11.654;2023-05-27T10:44:47;8.75;;;3.88;;
74269;SDS011;62754;48.252;11.654;2023-05-27T10:47:15;9.10;;;4.40;;
74269;SDS011;62754;48.252;11.654;2023-05-27T10:49:53;7.25;;;3.95;;
74269;SDS011;62754;48.252;11.654;2023-05-27T10:52:37;8.18;;;4.20;;
74269;SDS011;62754;48.252;11.654;2023-05-27T10:55:06;7.45;;;3.75;;
74269;SDS011;62754;48.252;11.654;2023-05-27T10:57:32;7.50;;;4.03;;
74269;SDS011;62754;48.252;11.654;2023-05-27T11:02:29;10.05;;;4.28;;
74269;SDS011;62754;48.252;11.654;2023-05-27T11:04:56;7.93;;;3.80;;
74269;SDS011;62754;48.252;11.654;2023-05-27T11:07:24;7.40;;;3.85;;
74269;SDS011;62754;48.252;11.654;2023-05-27T11:09:53;9.10;;;3.90;;
74269;SDS011;62754;48.252;11.654;2023-05-27T11:12:22;10.48;;;3.97;;
74269;SDS011;62754;48.252;11.654;2023-05-27T11:14:50;7.05;;;3.38;;
74269;SDS011;62754;48.252;11.654;2023-05-27T11:17:17;5.78;;;3.88;;
74269;SDS011;62754;48.252;11.654;2023-05-27T11:19:47;9.38;;;3.90;;
74269;SDS011;62754;48.252;11.654;2023-05-27T11:22:18;7.63;;;3.83;;
74269;SDS011;62754;48.252;11.654;2023-05-27T11:25:03;6.93;;;3.67;;
74269;SDS011;62754;48.252;11.654;2023-05-27T11:27:32;7.50;;;3.55;;
74269;SDS011;62754;48.252;11.654;2023-05-27T11:30:11;8.52;;;3.55;;
74269;SDS011;62754;48.252;11.654;2023-05-27T11:35:14;9.45;;;4.75;;
74269;SDS011;62754;48.252;11.654;2023-05-27T11:37:46;7.47;;;3.35;;
74269;SDS011;62754;48.252;11.654;2023-05-27T11:40:14;8.35;;;3.47;;
74269;SDS011;62754;48.252;11.654;2023-05-27T11:45:14;7.10;;;3.05;;
74269;SDS011;62754;48.252;11.654;2023-05-27T11:47:41;6.38;;;3.20;;
74269;SDS011;62754;48.252;11.654;2023-05-27T11:50:10;5.78;;;3.13;;
74269;SDS011;62754;48.252;11.654;2023-05-27T11:55:19;7.65;;;3.10;;
74269;SDS011;62754;48.252;11.654;2023-05-27T11:57:47;6.82;;;3.22;;
74269;SDS011;62754;48.252;11.654;2023-05-27T12:00:17;8.32;;;3.22;;
74269;SDS011;62754;48.252;11.654;2023-05-27T12:02:47;9.32;;;3.85;;
74269;SDS011;62754;48.252;11.654;2023-05-27T12:05:14;8.02;;;2.85;;
74269;SDS011;62754;48.252;11.654;2023-05-27T12:07:42;7.40;;;2.97;;
74269;SDS011;62754;48.252;11.654;2023-05-27T12:10:10;8.13;;;3.00;;
74269;SDS011;62754;48.252;11.654;2023-05-27T12:12:41;5.85;;;2.75;;
74269;SDS011;62754;48.252;11.654;2023-05-27T12:15:06;8.57;;;3.03;;
74269;SDS011;62754;48.252;11.654;2023-05-27T12:17:35;8.43;;;3.38;;
74269;SDS011;62754;48.252;11.654;2023-05-27T12:20:05;9.43;;;3.28;;
74269;SDS011;62754;48.252;11.654;2023-05-27T12:22:34;7.93;;;3.28;;
74269;SDS011;62754;48.252;11.654;2023-05-27T12:25:02;7.90;;;3.17;;
74269;SDS011;62754;48.252;11.654;2023-05-27T12:27:30;7.22;;;3.03;;
74269;SDS011;62754;48.252;11.654;2023-05-27T12:29:58;5.80;;;2.67;;
74269;SDS011;62754;48.252;11.654;2023-05-27T12:32:24;7.88;;;3.30;;
74269;SDS011;62754;48.252;11.654;2023-05-27T12:34:52;8.07;;;3.08;;
74269;SDS011;62754;48.252;11.654;2023-05-27T12:37:20;6.30;;;3.00;;
74269;SDS011;62754;48.252;11.654;2023-05-27T12:42:11;7.07;;;2.95;;
74269;SDS011;62754;48.252;11.654;2023-05-27T12:44:44;8.40;;;3.15;;
74269;SDS011;62754;48.252;11.654;2023-05-27T12:47:12;7.50;;;2.70;;
74269;SDS011;62754;48.252;11.654;2023-05-27T12:49:42;5.47;;;3.10;;
74269;SDS011;62754;48.252;11.654;2023-05-27T12:52:10;10.70;;;3.35;;
74269;SDS011;62754;48.252;11.654;2023-05-27T12:57:01;6.38;;;3.10;;
74269;SDS011;62754;48.252;11.654;2023-05-27T12:59:29;7.47;;;2.97;;
74269;SDS011;62754;48.252;11.654;2023-05-27T13:01:57;6.38;;;2.80;;
74269;SDS011;62754;48.252;11.654;2023-05-27T13:04:25;7.25;;;3.13;;
74269;SDS011;62754;48.252;11.654;2023-05-27T13:06:53;5.65;;;2.58;;
74269;SDS011;62754;48.252;11.654;2023-05-27T13:09:19;6.32;;;3.08;;
74269;SDS011;62754;48.252;11.654;2023-05-27T13:11:47;6.13;;;2.72;;
74269;SDS011;62754;48.252;11.654;2023-05-27T13:14:15;6.60;;;2.97;;
74269;SDS011;62754;48.252;11.654;2023-05-27T13:16:46;5.25;;;2.65;;
74269;SDS011;62754;48.252;11.654;2023-05-27T13:19:12;8.23;;;3.00;;
74269;SDS011;62754;48.252;11.654;2023-05-27T13:21:38;5.93;;;3.05;;
74269;SDS011;62754;48.252;11.654;2023-05-27T13:24:03;8.93;;;3.42;;
74269;SDS011;62754;48.252;11.654;2023-05-27T13:26:29;5.88;;;2.75;;
74269;SDS011;62754;48.252;11.654;2023-05-27T13:28:55;6.18;;;3.15;;
74269;SDS011;62754;48.252;11.654;2023-05-27T13:31:23;8.55;;;3.50;;
74269;SDS011;62754;48.252;11.654;2023-05-27T13:33:49;6.90;;;2.90;;
74269;SDS011;62754;48.252;11.654;2023-05-27T13:36:17;7.07;;;2.47;;
74269;SDS011;62754;48.252;11.654;2023-05-27T13:38:42;7.32;;;2.50;;
74269;SDS011;62754;48.252;11.654;2023-05-27T13:41:11;8.05;;;2.65;;
74269;SDS011;62754;48.252;11.654;2023-05-27T13:43:37;5.95;;;2.95;;
74269;SDS011;62754;48.252;11.654;2023-05-27T13:46:05;5.90;;;2.50;;
74269;SDS011;62754;48.252;11.654;2023-05-27T13:48:33;12.32;;;3.28;;
74269;SDS011;62754;48.252;11.654;2023-05-27T13:50:59;5.80;;;3.00;;
74269;SDS011;62754;48.252;11.654;2023-05-27T13:53:27;6.95;;;2.90;;
74269;SDS011;62754;48.252;11.654;2023-05-27T13:55:53;6.75;;;2.78;;
74269;SDS011;62754;48.252;11.654;2023-05-27T13:58:18;7.00;;;2.70;;
74269;SDS011;62754;48.252;11.654;2023-05-27T14:00:49;4.82;;;2.80;;
74269;SDS011;62754;48.252;11.654;2023-05-27T14:03:15;7.57;;;3.08;;
74269;SDS011;62754;48.252;11.654;2023-05-27T14:05:41;7.53;;;2.72;;
74269;SDS011;62754;48.252;11.654;2023-05-27T14:08:08;7.93;;;2.80;;
74269;SDS011;62754;48.252;11.654;2023-05-27T14:10:34;4.97;;;2.35;;
74269;SDS011;62754;48.252;11.654;2023-05-27T14:13:00;8.32;;;2.90;;
74269;SDS011;62754;48.252;11.654;2023-05-27T14:15:26;8.35;;;2.92;;
74269;SDS011;62754;48.252;11.654;2023-05-27T14:20:17;7.20;;;2.67;;
74269;SDS011;62754;48.252;11.654;2023-05-27T14:22:45;6.82;;;3.03;;
74269;SDS011;62754;48.252;11.654;2023-05-27T14:25:13;7.55;;;2.60;;
74269;SDS011;62754;48.252;11.654;2023-05-27T14:27:41;6.57;;;2.60;;
74269;SDS011;62754;48.252;11.654;2023-05-27T14:30:09;7.13;;;2.85;;
74269;SDS011;62754;48.252;11.654;2023-05-27T14:32:35;6.38;;;2.60;;
74269;SDS011;62754;48.252;11.654;2023-05-27T14:35:04;5.47;;;2.72;;
74269;SDS011;62754;48.252;11.654;2023-05-27T14:37:30;7.50;;;2.42;;
74269;SDS011;62754;48.252;11.654;2023-05-27T14:39:59;6.00;;;2.50;;
74269;SDS011;62754;48.252;11.654;2023-05-27T14:42:26;7.38;;;2.80;;
74269;SDS011;62754;48.252;11.654;2023-05-27T14:44:54;7.15;;;2.45;;
74269;SDS011;62754;48.252;11.654;2023-05-27T14:47:25;4.68;;;2.25;;
74269;SDS011;62754;48.252;11.654;2023-05-27T14:49:50;8.10;;;2.88;;
74269;SDS011;62754;48.252;11.654;2023-05-27T14:52:16;4.82;;;2.58;;
74269;SDS011;62754;48.252;11.654;2023-05-27T14:54:44;7.22;;;3.10;;
74269;SDS011;62754;48.252;11.654;2023-05-27T14:57:12;6.72;;;2.40;;
74269;SDS011;62754;48.252;11.654;2023-05-27T14:59:40;5.55;;;2.60;;